Time;durP1;ratioP1;P1;durP2;ratioP2;P2;SDS_P1;SDS_P2;PMS_P1;PMS_P2;Temp;Humidity;BMP_temperature;BMP_pressure;BME280_temperature;BME280_humidity;BME280_pressure;Samples;Min_cycle;Max_cycle;Signal;HPM_P1;HPM_P2
2022/06/02 00:02:28;;;;;;;0.50;0.30;;;;;;;20.35;100.00;95450.41;5073192;28;20951;-60
2022/06/02 00:05:26;;;;;;;0.40;0.20;;;;;;;20.36;100.00;95459.28;5072581;28;20491;-60
2022/06/02 00:08:32;;;;;;;0.40;0.20;;;;;;;20.30;100.00;95457.88;5072564;28;20473;-60
2022/06/02 00:11:20;;;;;;;0.40;0.30;;;;;;;20.24;100.00;95452.69;5071855;28;20473;-60
2022/06/02 00:14:01;;;;;;;0.40;0.30;;;;;;;19.90;100.00;95452.88;5072991;28;20460;-60
2022/06/02 00:16:36;;;;;;;0.40;0.30;;;;;;;19.29;100.00;95353.97;5072545;28;20417;-60
2022/06/02 00:19:13;;;;;;;0.50;0.30;;;;;;;20.01;100.00;95461.38;5072755;28;20506;-60
2022/06/02 00:21:49;;;;;;;0.40;0.30;;;;;;;20.00;100.00;95447.13;5073198;28;20532;-60
2022/06/02 00:24:35;;;;;;;0.93;0.93;;;;;;;19.77;100.00;95451.19;5073154;28;20807;-60
2022/06/02 00:27:18;;;;;;;0.50;0.30;;;;;;;19.75;100.00;95458.00;5071934;28;20433;-60
2022/06/02 00:29:56;;;;;;;0.40;0.20;;;;;;;19.49;100.00;95440.06;5072003;28;20477;-60
2022/06/02 00:32:38;;;;;;;0.50;0.30;;;;;;;19.41;100.00;95426.66;5072948;28;20457;-60
2022/06/02 00:35:23;;;;;;;0.83;0.83;;;;;;;19.52;100.00;95417.13;5072991;28;20496;-60
2022/06/02 00:37:58;;;;;;;0.40;0.30;;;;;;;19.85;100.00;95453.06;5072518;28;20571;-60
2022/06/02 00:40:28;;;;;;;0.40;0.30;;;;;;;19.98;100.00;95460.13;5072556;28;20421;-60
2022/06/02 00:43:16;;;;;;;0.40;0.20;;;;;;;20.00;100.00;95455.19;5072445;28;20472;-60
2022/06/02 00:45:48;;;;;;;0.40;0.30;;;;;;;20.00;100.00;95449.81;5072467;28;20516;-60
2022/06/02 00:48:24;;;;;;;0.50;0.30;;;;;;;20.02;100.00;95444.09;5072584;28;20517;-59
2022/06/02 00:51:03;;;;;;;1.70;1.60;;;;;;;19.99;100.00;95455.50;5071884;28;20476;-60
2022/06/02 00:53:41;;;;;;;0.50;0.30;;;;;;;19.85;100.00;95442.31;5072219;28;20483;-60
2022/06/02 00:59:25;;;;;;;0.40;0.30;;;;;;;19.97;100.00;95465.81;5072245;28;20480;-60
2022/06/02 01:01:55;;;;;;;0.40;0.30;;;;;;;20.10;100.00;95465.59;5071836;28;20479;-60
2022/06/02 01:04:25;;;;;;;0.50;0.50;;;;;;;19.61;100.00;95463.59;5071900;28;20483;-60
2022/06/02 01:07:04;;;;;;;0.57;0.40;;;;;;;19.61;100.00;95450.94;5072088;28;20525;-60
2022/06/02 01:09:51;;;;;;;0.50;0.30;;;;;;;19.70;100.00;95460.88;5071411;28;20523;-60
2022/06/02 01:12:46;;;;;;;0.70;0.40;;;;;;;18.24;100.00;95241.78;5072009;28;20417;-60
2022/06/02 01:15:27;;;;;;;1.57;0.50;;;;;;;19.61;100.00;95469.75;5071621;28;20469;-60
2022/06/02 01:18:07;;;;;;;1.43;0.40;;;;;;;19.52;100.00;95454.78;5072012;28;20808;-60
2022/06/02 01:20:45;;;;;;;0.50;0.50;;;;;;;19.60;100.00;95470.09;5071235;28;20472;-60
2022/06/02 01:23:46;;;;;;;2.00;1.63;;;;;;;19.54;100.00;95460.63;5071111;28;20472;-60
2022/06/02 01:26:56;;;;;;;0.50;0.30;;;;;;;19.62;100.00;95470.56;5071427;28;20491;-59
2022/06/02 01:29:51;;;;;;;0.40;0.30;;;;;;;19.60;100.00;95467.41;5064749;28;20476;-59
2022/06/02 01:32:28;;;;;;;0.40;0.20;;;;;;;19.25;100.00;95412.16;5056247;28;20441;-60
2022/06/02 01:35:03;;;;;;;0.80;0.30;;;;;;;19.48;100.00;95451.94;5071771;28;20487;-60
2022/06/02 01:37:37;;;;;;;0.40;0.30;;;;;;;19.45;100.00;95457.97;5070861;28;20974;-60
2022/06/02 01:40:20;;;;;;;0.40;0.30;;;;;;;19.34;100.00;95461.28;5071393;28;20425;-60
2022/06/02 01:42:56;;;;;;;0.40;0.20;;;;;;;19.42;100.00;95455.13;5071703;28;20901;-60
2022/06/02 01:45:41;;;;;;;0.50;0.30;;;;;;;19.37;100.00;95455.31;5071268;28;20429;-60
2022/06/02 01:48:21;;;;;;;0.40;0.30;;;;;;;19.02;100.00;95454.56;5070923;28;20491;-60
2022/06/02 01:50:59;;;;;;;0.40;0.30;;;;;;;19.10;100.00;95450.28;5070877;28;20472;-60
2022/06/02 01:53:41;;;;;;;0.50;0.47;;;;;;;19.22;100.00;95463.84;5071110;28;20527;-60
2022/06/02 01:56:31;;;;;;;0.50;0.37;;;;;;;19.31;100.00;95464.59;5071150;28;20465;-60
2022/06/02 01:59:16;;;;;;;0.40;0.30;;;;;;;19.25;100.00;95455.91;5070196;28;20417;-60
2022/06/02 02:01:54;;;;;;;0.40;0.30;;;;;;;19.12;100.00;95464.19;5071212;28;21001;-60
2022/06/02 02:04:50;;;;;;;0.40;0.30;;;;;;;19.24;100.00;95464.31;5071124;28;20432;-60
2022/06/02 02:07:29;;;;;;;0.50;0.30;;;;;;;19.23;100.00;95465.41;5067816;28;21017;-60
2022/06/02 02:10:03;;;;;;;0.40;0.20;;;;;;;19.13;100.00;95455.78;5070811;28;20548;-60
2022/06/02 02:12:48;;;;;;;0.40;0.20;;;;;;;19.22;100.00;95469.22;5071422;28;20449;-60
2022/06/02 02:15:28;;;;;;;0.50;0.30;;;;;;;19.22;100.00;95474.59;5071024;28;20425;-60
2022/06/02 02:18:21;;;;;;;0.40;0.30;;;;;;;19.28;100.00;95473.31;5070837;28;20508;-60
2022/06/02 02:21:01;;;;;;;0.40;0.30;;;;;;;19.11;100.00;95467.97;5064065;28;20483;-60
2022/06/02 02:23:36;;;;;;;0.50;0.30;;;;;;;19.11;100.00;95481.41;5071018;28;20512;-60
2022/06/02 02:26:10;;;;;;;0.47;0.47;;;;;;;19.05;100.00;95482.69;5071108;28;20506;-60
2022/06/02 02:28:50;;;;;;;0.50;0.30;;;;;;;18.75;100.00;95487.91;5070507;28;20508;-60
2022/06/02 02:31:33;;;;;;;0.70;0.60;;;;;;;18.56;100.00;95490.13;5070692;28;20550;-60
2022/06/02 02:34:15;;;;;;;0.40;0.30;;;;;;;18.82;100.00;95487.44;5073560;28;20516;-60
2022/06/02 02:36:55;;;;;;;0.50;0.40;;;;;;;18.75;100.00;95487.91;5074729;28;20433;-60
2022/06/02 02:39:32;;;;;;;0.40;0.20;;;;;;;18.47;100.00;95478.56;5074319;28;20480;-60
2022/06/02 02:42:06;;;;;;;0.50;0.50;;;;;;;18.08;100.00;95484.03;5074040;28;20463;-60
2022/06/02 02:44:43;;;;;;;0.40;0.20;;;;;;;18.39;100.00;95476.66;5074899;28;20483;-60
2022/06/02 02:47:19;;;;;;;1.17;1.07;;;;;;;18.57;100.00;95472.91;5074493;28;20532;-60
2022/06/02 02:49:51;;;;;;;0.50;0.30;;;;;;;18.48;100.00;95449.84;5073926;28;20515;-60
2022/06/02 02:52:34;;;;;;;0.43;0.30;;;;;;;18.65;100.00;95474.81;5074172;28;20421;-60
2022/06/02 02:55:08;;;;;;;2.73;0.30;;;;;;;18.63;100.00;95468.97;5074766;28;20874;-60
2022/06/02 02:57:48;;;;;;;0.40;0.30;;;;;;;18.57;100.00;95470.22;5074211;28;20455;-60
2022/06/02 03:00:22;;;;;;;0.47;0.30;;;;;;;18.40;100.00;95459.44;5074584;28;20783;-60
2022/06/02 03:03:01;;;;;;;0.50;0.33;;;;;;;18.60;100.00;95474.97;5074607;28;20511;-59
2022/06/02 03:05:39;;;;;;;0.40;0.30;;;;;;;18.59;100.00;95481.44;5073991;28;20941;-60
2022/06/02 03:08:16;;;;;;;0.50;0.40;;;;;;;18.70;100.00;95480.00;5074357;28;20511;-60
2022/06/02 03:10:48;;;;;;;0.50;0.30;;;;;;;18.63;100.00;95463.59;5074020;28;20507;-60
2022/06/02 03:13:33;;;;;;;0.40;0.20;;;;;;;18.69;100.00;95478.44;5074123;28;20978;-59
2022/06/02 03:16:07;;;;;;;0.40;0.30;;;;;;;18.74;100.00;95477.50;5073515;28;20950;-60
2022/06/02 03:18:53;;;;;;;0.40;0.20;;;;;;;18.29;100.00;95405.28;5074036;28;20425;-60
2022/06/02 03:21:34;;;;;;;0.50;0.30;;;;;;;18.76;100.00;95483.34;5073962;28;20487;-60
2022/06/02 03:24:39;;;;;;;0.70;0.60;;;;;;;18.54;100.00;95473.56;5073584;28;20516;-60
2022/06/02 03:27:19;;;;;;;1.37;0.87;;;;;;;18.64;100.00;95470.56;5073894;28;20425;-60
2022/06/02 03:29:58;;;;;;;1.17;1.07;;;;;;;18.05;100.00;95364.72;5073873;28;20456;-60
2022/06/02 03:32:42;;;;;;;0.40;0.30;;;;;;;18.81;100.00;95485.88;5073211;28;20476;-60
2022/06/02 03:35:25;;;;;;;0.40;0.40;;;;;;;18.78;100.00;95487.28;5073942;28;20528;-60
2022/06/02 03:38:14;;;;;;;2.93;2.00;;;;;;;18.79;100.00;95491.56;5073655;28;20973;-61
2022/06/02 03:41:12;;;;;;;0.40;0.30;;;;;;;18.78;100.00;95487.28;5074771;28;20464;-59
2022/06/02 03:43:51;;;;;;;0.73;0.50;;;;;;;18.48;100.00;95488.22;5073744;28;20476;-59
2022/06/02 03:46:44;;;;;;;0.47;0.30;;;;;;;17.84;100.00;95489.78;5073578;28;20425;-60
2022/06/02 03:49:36;;;;;;;0.60;0.60;;;;;;;18.08;100.00;95484.81;5072963;28;20990;-60
2022/06/02 03:52:20;;;;;;;0.40;0.30;;;;;;;18.35;100.00;95489.91;5066209;28;20484;-60
2022/06/02 03:55:02;;;;;;;1.03;0.40;;;;;;;18.10;100.00;95492.53;5073347;28;20475;-60
2022/06/02 03:57:49;;;;;;;0.83;0.53;;;;;;;18.42;100.00;95492.13;5073744;28;20510;-60
2022/06/02 04:00:22;;;;;;;0.50;0.40;;;;;;;18.57;100.00;95490.94;5072738;28;20954;-59
2022/06/02 04:02:54;;;;;;;0.53;0.47;;;;;;;18.75;100.00;95484.44;5072932;28;20479;-60
2022/06/02 04:05:58;;;;;;;0.40;0.20;;;;;;;18.80;100.00;95484.28;5072796;28;20456;-61
2022/06/02 04:08:39;;;;;;;0.40;0.30;;;;;;;18.67;100.00;95486.00;5073152;28;20516;-60
2022/06/02 04:11:19;;;;;;;0.50;0.40;;;;;;;18.79;100.00;95482.72;5072945;28;20504;-60
2022/06/02 04:14:00;;;;;;;1.70;0.60;;;;;;;18.89;100.00;95491.25;5073020;28;20457;-59
2022/06/02 04:16:42;;;;;;;5.13;1.53;;;;;;;19.03;100.00;95491.06;5073121;28;20465;-59
2022/06/02 04:23:11;;;;;;;0.40;0.30;;;;;;;18.96;100.00;95471.94;5072910;28;20449;-60
2022/06/02 04:25:51;;;;;;;0.40;0.30;;;;;;;18.17;100.00;95359.53;5072852;28;20469;-60
2022/06/02 04:28:44;;;;;;;4.00;0.73;;;;;;;19.22;100.00;95496.91;5072451;28;20548;-60
2022/06/02 04:31:35;;;;;;;3.33;2.37;;;;;;;19.15;100.00;95493.88;5072348;28;20507;-60
2022/06/02 04:34:19;;;;;;;0.80;0.80;;;;;;;18.73;100.00;95489.34;5072757;28;20465;-60
2022/06/02 04:37:02;;;;;;;9.13;1.60;;;;;;;19.07;100.00;95504.66;5072694;28;20488;-60
2022/06/02 04:39:41;;;;;;;0.40;0.30;;;;;;;19.24;100.00;95500.03;5072519;28;20520;-60
2022/06/02 04:42:20;;;;;;;0.50;0.40;;;;;;;19.21;100.00;95502.56;5072309;28;20461;-60
2022/06/02 04:44:56;;;;;;;0.70;0.70;;;;;;;19.16;100.00;95502.72;5072594;28;20433;-60
2022/06/02 04:47:40;;;;;;;0.50;0.30;;;;;;;19.40;100.00;95494.97;5072443;28;20452;-60
2022/06/02 04:50:17;;;;;;;0.77;0.40;;;;;;;19.69;100.00;95495.03;5072278;28;20512;-60
2022/06/02 04:52:55;;;;;;;2.40;0.50;;;;;;;19.74;100.00;95465.28;5072386;28;20508;-60
2022/06/02 04:55:35;;;;;;;0.73;0.73;;;;;;;19.91;100.00;95486.72;5072204;28;20465;-60
2022/06/02 04:58:13;;;;;;;0.40;0.30;;;;;;;20.07;100.00;95482.38;5072327;28;20468;-60
2022/06/02 05:00:51;;;;;;;3.33;1.00;;;;;;;19.99;100.00;95485.88;5072178;28;20950;-60
2022/06/02 05:03:45;;;;;;;0.40;0.30;;;;;;;20.01;100.00;95472.13;5072367;28;20425;-60
2022/06/02 05:06:25;;;;;;;0.40;0.33;;;;;;;20.46;100.00;95488.50;5072250;28;20851;-60
2022/06/02 05:09:03;;;;;;;1.00;0.50;;;;;;;20.63;100.00;95489.19;5071978;28;20444;-59
2022/06/02 05:11:42;;;;;;;0.50;0.40;;;;;;;20.73;100.00;95482.59;5072017;28;20500;-59
2022/06/02 05:14:22;;;;;;;0.60;0.50;;;;;;;20.76;100.00;95455.00;5072128;28;20519;-59
2022/06/02 05:17:01;;;;;;;0.50;0.40;;;;;;;20.80;100.00;95485.56;5071935;28;20946;-59
2022/06/02 05:19:37;;;;;;;0.50;0.40;;;;;;;20.73;100.00;95506.84;5072083;28;20507;-59
2022/06/02 05:22:42;;;;;;;6.23;1.43;;;;;;;20.22;100.00;95487.19;5072332;28;20647;-58
2022/06/02 05:25:47;;;;;;;1.23;0.50;;;;;;;19.93;100.00;95489.91;5021003;28;20481;-58
2022/06/02 05:28:46;;;;;;;0.80;0.80;;;;;;;20.29;100.00;95488.63;5072235;28;20504;-58
2022/06/02 05:31:41;;;;;;;0.60;0.53;;;;;;;20.35;100.00;95496.19;5071565;28;20501;-58
2022/06/02 05:34:51;;;;;;;1.13;1.13;;;;;;;20.04;100.00;95487.59;5072043;28;20962;-58
2022/06/02 05:37:36;;;;;;;0.90;0.87;;;;;;;20.81;100.00;95487.13;5072229;28;20433;-56
2022/06/02 05:40:16;;;;;;;0.93;0.87;;;;;;;20.89;100.00;95483.59;5072082;28;20508;-58
2022/06/02 05:43:00;;;;;;;2.00;0.80;;;;;;;21.40;100.00;95480.41;5071770;28;20472;-58
2022/06/02 05:45:43;;;;;;;2.00;0.47;;;;;;;21.88;100.00;95470.88;5071278;28;20876;-57
2022/06/02 05:48:29;;;;;;;0.40;0.40;;;;;;;22.16;100.00;95471.78;5071681;28;20437;-57
2022/06/02 05:51:10;;;;;;;2.40;1.00;;;;;;;22.05;100.00;95468.75;5071657;28;20430;-57
2022/06/02 05:53:53;;;;;;;0.50;0.40;;;;;;;22.10;100.00;95428.03;5071796;28;20933;-57
2022/06/02 05:56:40;;;;;;;0.60;0.43;;;;;;;21.60;100.00;95332.34;5071476;28;20942;-57
2022/06/02 05:59:53;;;;;;;0.40;0.30;;;;;;;22.62;100.00;95452.34;5071739;28;20503;-57
2022/06/02 06:03:07;;;;;;;0.80;0.80;;;;;;;22.86;96.85;95461.53;5009679;28;20868;-57
2022/06/02 06:05:42;;;;;;;0.50;0.50;;;;;;;22.96;95.76;95461.84;5009477;28;20519;-57
2022/06/02 06:08:33;;;;;;;0.60;0.43;;;;;;;23.22;97.08;95464.88;5010788;28;20469;-57
2022/06/02 06:11:17;;;;;;;1.43;0.50;;;;;;;23.38;94.17;95465.72;5013817;28;20427;-56
2022/06/02 06:14:14;;;;;;;1.17;1.07;;;;;;;23.93;93.04;95467.50;5045953;28;20436;-57
2022/06/02 06:16:55;;;;;;;0.50;0.50;;;;;;;24.28;91.41;95451.34;5075158;28;20483;-56
2022/06/02 06:19:48;;;;;;;0.60;0.60;;;;;;;23.41;91.95;95466.16;5075551;28;20435;-57
2022/06/02 06:22:46;;;;;;;2.03;0.70;;;;;;;24.03;90.41;95445.28;5074970;28;20447;-56
2022/06/02 06:26:08;;;;;;;0.70;0.70;;;;;;;24.27;87.23;95406.41;5071849;28;20521;-57
2022/06/02 06:28:53;;;;;;;0.63;0.63;;;;;;;24.41;87.43;95465.56;5074961;28;20485;-54
2022/06/02 06:31:32;;;;;;;1.10;0.93;;;;;;;24.67;82.87;95452.19;5075461;28;20475;-57
2022/06/02 06:34:16;;;;;;;0.30;0.20;;;;;;;25.04;82.27;95453.38;5075521;28;20428;-56
2022/06/02 06:37:13;;;;;;;0.40;0.30;;;;;;;25.00;77.01;95371.16;5075041;28;20797;-57
2022/06/02 06:39:58;;;;;;;0.50;0.40;;;;;;;24.54;74.33;95317.97;5074431;28;20459;-57
2022/06/02 06:43:17;;;;;;;0.57;0.47;;;;;;;25.26;74.18;95430.16;5074658;28;20460;-56
2022/06/02 06:45:56;;;;;;;0.50;0.40;;;;;;;25.17;72.11;95319.16;5062117;28;20496;-61
2022/06/02 06:48:34;;;;;;;2.00;0.40;;;;;;;25.77;72.44;95351.94;5074994;28;20436;-57
2022/06/02 06:51:11;;;;;;;0.93;0.83;;;;;;;26.29;69.25;95424.53;5075057;28;20547;-56
2022/06/02 06:53:57;;;;;;;0.63;0.63;;;;;;;26.45;66.91;95427.88;5074482;28;20464;-55
2022/06/02 06:56:39;;;;;;;1.60;0.53;;;;;;;25.94;66.65;95430.19;5074826;28;20475;-56
2022/06/02 06:59:26;;;;;;;0.60;0.40;;;;;;;26.05;67.62;95379.53;5074683;28;20498;-56
2022/06/02 07:02:04;;;;;;;0.50;0.40;;;;;;;26.69;65.53;95416.53;5074297;28;20476;-55
2022/06/02 07:05:01;;;;;;;0.90;0.70;;;;;;;26.09;63.56;95326.03;5074550;28;20487;-55
2022/06/02 07:07:41;;;;;;;6.93;1.07;;;;;;;26.26;62.15;95311.91;5074127;28;21028;-55
2022/06/02 07:10:15;;;;;;;0.43;0.40;;;;;;;27.10;59.30;95366.53;5074750;28;20515;-55
2022/06/02 07:12:50;;;;;;;0.57;0.57;;;;;;;27.52;56.89;95409.78;5074658;28;20464;-56
2022/06/02 07:15:31;;;;;;;0.40;0.40;;;;;;;27.74;56.53;95413.47;5074109;28;20428;-55
2022/06/02 07:18:11;;;;;;;0.60;0.47;;;;;;;27.87;55.46;95416.69;5074597;28;20425;-56
2022/06/02 07:20:49;;;;;;;0.40;0.30;;;;;;;28.02;52.00;95418.38;5073770;28;20437;-56
2022/06/02 07:23:29;;;;;;;0.40;0.30;;;;;;;28.43;52.34;95419.84;5074259;28;20979;-56
2022/06/02 07:26:09;;;;;;;0.50;0.40;;;;;;;28.22;52.85;95384.25;5074490;28;20452;-56
2022/06/02 07:28:54;;;;;;;1.33;0.40;;;;;;;28.81;50.69;95397.47;5073185;28;20523;-57
2022/06/02 07:31:45;;;;;;;0.40;0.30;;;;;;;26.63;48.15;94987.69;5073949;28;20516;-57
2022/06/02 07:34:27;;;;;;;1.23;1.23;;;;;;;28.68;49.76;95407.16;5074357;28;20460;-57
2022/06/02 07:37:06;;;;;;;0.50;0.40;;;;;;;28.81;51.72;95411.13;5073903;28;20461;-57
2022/06/02 07:40:02;;;;;;;1.00;0.57;;;;;;;28.86;49.51;95399.03;5073908;28;20516;-57
2022/06/02 07:43:14;;;;;;;0.50;0.30;;;;;;;29.14;51.50;95392.91;5074218;28;20466;-57
2022/06/02 07:45:55;;;;;;;0.70;0.70;;;;;;;29.20;48.88;95405.81;5011776;28;20436;-58
2022/06/02 07:49:05;;;;;;;0.70;0.60;;;;;;;29.11;48.60;95402.63;5011781;28;20436;-58
2022/06/02 07:51:41;;;;;;;2.83;0.60;;;;;;;29.60;46.83;95396.50;5044551;28;20507;-58
2022/06/02 07:54:25;;;;;;;0.50;0.40;;;;;;;29.75;46.05;95386.41;5073057;28;20476;-58
2022/06/02 07:57:08;;;;;;;0.50;0.40;;;;;;;29.10;49.66;95283.69;5073627;28;20429;-58
2022/06/02 08:00:03;;;;;;;0.47;0.40;;;;;;;30.17;46.62;95378.97;5072645;28;20436;-58
2022/06/02 08:03:06;;;;;;;0.87;0.60;;;;;;;29.74;44.96;95382.09;5073777;28;20429;-58
2022/06/02 08:05:45;;;;;;;0.40;0.30;;;;;;;30.05;45.92;95376.66;5071047;28;20532;-57
2022/06/02 08:08:29;;;;;;;0.50;0.50;;;;;;;30.40;44.64;95375.06;5073199;28;20417;-57
2022/06/02 08:11:23;;;;;;;0.50;0.50;;;;;;;29.99;44.70;95304.41;5073682;28;20437;-57
2022/06/02 08:14:03;;;;;;;0.50;0.50;;;;;;;30.59;43.03;95363.66;5072691;28;20469;-57
2022/06/02 08:16:43;;;;;;;0.40;0.40;;;;;;;30.86;42.56;95361.22;5073302;28;20487;-57
2022/06/02 08:19:14;;;;;;;0.50;0.47;;;;;;;31.29;42.35;95360.63;5073060;28;20447;-61
2022/06/02 08:21:48;;;;;;;0.40;0.30;;;;;;;30.41;41.13;95228.94;5072538;28;20484;-59
2022/06/02 08:24:57;;;;;;;0.40;0.30;;;;;;;31.66;40.68;95362.72;5073376;28;20507;-59
2022/06/02 08:27:48;;;;;;;0.40;0.30;;;;;;;31.62;40.39;95362.00;5072697;28;20504;-56
2022/06/02 08:30:20;;;;;;;2.20;0.70;;;;;;;31.57;40.87;95342.47;5072344;28;20437;-57
2022/06/02 08:33:11;;;;;;;0.70;0.53;;;;;;;31.69;39.55;95363.88;5072790;28;20559;-56
2022/06/02 08:35:47;;;;;;;0.70;0.60;;;;;;;30.95;40.33;95304.88;5070230;28;20796;-57
2022/06/02 08:38:35;;;;;;;1.57;0.53;;;;;;;31.81;42.15;95357.91;5073053;28;20428;-56
2022/06/02 08:41:57;;;;;;;0.40;0.30;;;;;;;32.27;40.66;95357.53;5072611;28;20475;-56
2022/06/02 08:45:16;;;;;;;0.40;0.30;;;;;;;32.75;37.66;95343.69;4991049;28;20440;-56
2022/06/02 08:48:20;;;;;;;0.40;0.30;;;;;;;31.60;38.71;95355.34;4991198;28;20523;-58
2022/06/02 08:51:34;;;;;;;1.10;1.10;;;;;;;31.50;38.71;95356.22;5072592;28;20895;-55
2022/06/02 08:54:41;;;;;;;0.50;0.40;;;;;;;31.55;37.93;95355.78;5072291;28;20491;-57
2022/06/02 08:57:31;;;;;;;0.40;0.30;;;;;;;31.79;39.36;95347.38;5072559;28;20446;-55
2022/06/02 09:00:37;;;;;;;1.37;0.50;;;;;;;31.05;39.62;95188.25;5072698;28;20869;-56
2022/06/02 09:03:28;;;;;;;0.43;0.33;;;;;;;32.91;40.88;95341.13;5071996;28;20463;-56
2022/06/02 09:06:30;;;;;;;0.53;0.40;;;;;;;31.82;37.83;95330.13;5072371;28;20432;-57
2022/06/02 09:09:21;;;;;;;0.63;0.63;;;;;;;31.82;39.27;95290.94;5059621;28;20432;-56
2022/06/02 09:12:34;;;;;;;0.30;0.30;;;;;;;32.37;37.04;95304.50;5071530;28;21124;-56
2022/06/02 09:15:35;;;;;;;0.40;0.40;;;;;;;29.04;37.59;94744.94;5061234;28;20635;-58
2022/06/02 09:18:50;;;;;;;0.40;0.40;;;;;;;32.63;35.28;95336.78;5072158;28;20487;-58
2022/06/02 09:21:53;;;;;;;0.40;0.40;;;;;;;33.01;37.88;95327.28;5071835;28;20812;-58
2022/06/02 09:24:28;;;;;;;0.50;0.40;;;;;;;32.87;37.55;95312.94;5071152;28;20862;-58
2022/06/02 09:27:19;;;;;;;0.47;0.30;;;;;;;33.64;37.07;95319.31;5071481;28;20887;-58
2022/06/02 09:29:57;;;;;;;0.60;0.50;;;;;;;33.55;37.66;95316.34;5071657;28;20472;-58
2022/06/02 09:32:51;;;;;;;2.87;0.50;;;;;;;32.39;36.90;95149.28;5072181;28;20431;-56
2022/06/02 09:35:21;;;;;;;0.80;0.53;;;;;;;33.27;38.08;95312.00;5072028;28;20443;-56
2022/06/02 09:38:36;;;;;;;20.67;0.83;;;;;;;32.23;37.83;95308.16;5071598;28;20465;-56
2022/06/02 09:41:31;;;;;;;0.40;0.40;;;;;;;32.82;37.49;95333.38;5044255;28;20475;-55
2022/06/02 09:44:17;;;;;;;0.50;0.47;;;;;;;33.79;33.87;95277.44;5071874;28;20437;-55
2022/06/02 09:47:27;;;;;;;2.53;0.80;;;;;;;33.57;32.90;95270.75;5071624;28;20799;-55
2022/06/02 09:50:33;;;;;;;0.60;0.40;;;;;;;34.15;30.80;95287.81;5071615;28;20435;-55
2022/06/02 09:53:28;;;;;;;0.40;0.40;;;;;;;34.60;31.05;95285.38;5071660;28;20436;-56
2022/06/02 09:56:10;;;;;;;0.50;0.40;;;;;;;35.35;27.51;95280.59;5064420;28;20465;-55
2022/06/02 09:58:54;;;;;;;13.83;0.63;;;;;;;35.56;29.40;95271.06;5071357;28;20467;-56
2022/06/02 10:01:42;;;;;;;0.40;0.40;;;;;;;34.56;27.81;95252.41;5071849;28;20425;-55
2022/06/02 10:04:39;;;;;;;0.30;0.30;;;;;;;35.42;27.71;95271.38;5071174;28;20452;-57
2022/06/02 10:07:31;;;;;;;0.83;0.83;;;;;;;35.86;27.36;95269.91;5071269;28;20497;-56
2022/06/02 10:10:26;;;;;;;0.50;0.33;;;;;;;36.06;25.95;95274.13;5071780;28;20239;-56
2022/06/02 10:13:15;;;;;;;0.40;0.30;;;;;;;35.84;26.91;95226.22;5071392;28;20237;-57
2022/06/02 10:16:03;;;;;;;0.40;0.30;;;;;;;36.86;25.43;95272.31;5071412;28;20249;-59
2022/06/02 10:18:58;;;;;;;0.40;0.30;;;;;;;37.53;24.23;95254.44;5071553;28;20220;-57
2022/06/02 10:21:43;;;;;;;0.30;0.20;;;;;;;37.55;22.98;95265.03;5054695;28;20636;-57
2022/06/02 10:24:54;;;;;;;2.90;0.43;;;;;;;35.92;25.13;95210.25;5070950;28;20202;-57
2022/06/02 10:27:55;;;;;;;4.20;0.40;;;;;;;37.33;24.23;95245.59;5071182;28;20281;-57
2022/06/02 10:31:24;;;;;;;0.30;0.20;;;;;;;37.04;24.11;95249.69;5066130;28;20226;-57
2022/06/02 10:34:21;;;;;;;0.30;0.30;;;;;;;35.43;25.78;95245.34;5071169;28;20257;-57
2022/06/02 10:37:00;;;;;;;0.30;0.30;;;;;;;35.82;26.07;95238.91;5071376;28;20575;-57
2022/06/02 10:39:51;;;;;;;2.60;0.50;;;;;;;35.60;24.54;95208.31;5071576;28;20222;-56
2022/06/02 10:42:47;;;;;;;0.50;0.50;;;;;;;34.95;25.49;95157.91;5070994;28;20219;-56
2022/06/02 10:45:48;;;;;;;0.33;0.30;;;;;;;34.80;25.03;95228.31;5070903;28;20688;-56
2022/06/02 10:49:00;;;;;;;0.30;0.30;;;;;;;35.36;26.43;95231.75;5065800;28;20283;-56
2022/06/02 10:52:05;;;;;;;0.50;0.50;;;;;;;35.47;25.09;95230.28;4989411;28;20238;-56
2022/06/02 10:55:07;;;;;;;0.30;0.20;;;;;;;36.62;23.19;95226.84;5072211;28;20250;-57
2022/06/02 10:58:14;;;;;;;0.40;0.40;;;;;;;35.89;23.30;95233.19;5074974;28;20241;-57
2022/06/02 11:01:03;;;;;;;4.23;0.50;;;;;;;37.16;23.24;95216.53;5073554;28;20204;-57
2022/06/02 11:04:22;;;;;;;0.40;0.30;;;;;;;37.68;22.86;95201.41;5074438;28;20739;-57
2022/06/02 11:07:33;;;;;;;0.40;0.30;;;;;;;38.35;22.39;95210.94;5074176;28;20269;-57
2022/06/02 11:10:26;;;;;;;0.30;0.30;;;;;;;36.83;22.50;95213.19;5074647;28;20226;-57
2022/06/02 11:13:21;;;;;;;0.40;0.40;;;;;;;35.94;22.76;95216.09;5074202;28;20231;-56
2022/06/02 11:16:36;;;;;;;0.40;0.30;;;;;;;36.31;23.51;95180.38;5073759;28;20223;-55
2022/06/02 11:19:46;;;;;;;0.88;0.88;;;;;;;37.53;23.54;95210.19;5074375;28;20274;-55
2022/06/02 11:22:34;;;;;;;0.30;0.30;;;;;;;38.10;22.14;95199.94;5000074;28;20197;-55
2022/06/02 11:25:35;;;;;;;0.30;0.22;;;;;;;37.77;22.28;95202.28;5074413;28;20195;-55
2022/06/02 11:28:37;;;;;;;0.30;0.20;;;;;;;37.85;21.48;95202.81;5073751;28;20250;-55
2022/06/02 11:31:37;;;;;;;0.52;0.40;;;;;;;38.00;21.57;95201.84;5074272;28;20277;-56
2022/06/02 11:34:29;;;;;;;0.40;0.30;;;;;;;37.98;21.72;95203.53;5073862;28;20305;-56
2022/06/02 11:37:29;;;;;;;0.30;0.20;;;;;;;37.82;22.96;95196.16;5074165;28;20513;-57
2022/06/02 11:40:34;;;;;;;0.30;0.20;;;;;;;37.82;22.73;95196.16;5072111;28;20744;-56
2022/06/02 11:43:24;;;;;;;0.35;0.30;;;;;;;38.05;22.61;95189.47;5073716;28;20244;-56
2022/06/02 11:46:33;;;;;;;0.30;0.20;;;;;;;36.85;22.61;95194.16;5073771;28;20274;-56
2022/06/02 11:49:27;;;;;;;0.50;0.30;;;;;;;37.57;22.17;95190.72;5074091;28;20261;-56
2022/06/02 11:52:25;;;;;;;0.30;0.20;;;;;;;37.75;21.76;95190.84;5073586;28;20195;-57
2022/06/02 11:55:13;;;;;;;0.30;0.30;;;;;;;37.84;22.33;95181.88;5073420;28;20281;-56
2022/06/02 11:58:04;;;;;;;0.40;0.30;;;;;;;38.20;21.46;95165.56;5073300;28;20194;-56
2022/06/02 12:00:55;;;;;;;0.47;0.38;;;;;;;36.71;22.49;95180.03;5073396;28;20669;-55
2022/06/02 12:03:52;;;;;;;0.30;0.30;;;;;;;37.66;22.32;95176.19;5073369;28;20270;-55
2022/06/02 12:07:08;;;;;;;0.40;0.30;;;;;;;37.87;21.94;95167.19;5072586;28;20263;-55
2022/06/02 12:10:00;;;;;;;0.30;0.30;;;;;;;37.05;21.71;95171.06;5073178;28;20190;-55
2022/06/02 12:12:57;;;;;;;0.50;0.35;;;;;;;37.68;21.25;95165.44;5073152;28;20200;-55
2022/06/02 12:16:13;;;;;;;0.40;0.32;;;;;;;37.19;22.62;95163.09;5073053;28;20187;-56
2022/06/02 12:18:58;;;;;;;0.50;0.40;;;;;;;37.03;22.60;95132.06;5010839;28;20653;-54
2022/06/02 12:21:57;;;;;;;0.60;0.60;;;;;;;37.31;22.64;95151.25;5011060;28;20209;-53
2022/06/02 12:24:51;;;;;;;0.30;0.30;;;;;;;36.52;22.78;95156.13;5061076;28;20718;-54
2022/06/02 12:27:48;;;;;;;0.40;0.30;;;;;;;35.05;23.14;95159.66;5072419;28;20269;-54
2022/06/02 12:30:29;;;;;;;0.30;0.20;;;;;;;36.03;22.39;95076.31;5069913;28;20650;-54
2022/06/02 12:33:12;;;;;;;0.40;0.30;;;;;;;36.63;22.87;95151.06;5072917;28;20274;-54
2022/06/02 12:36:15;;;;;;;0.40;0.40;;;;;;;36.76;22.57;95141.56;5072948;28;20195;-54
2022/06/02 12:39:03;;;;;;;0.40;0.30;;;;;;;36.89;23.17;95122.97;5067369;28;20652;-54
2022/06/02 12:41:41;;;;;;;0.50;0.40;;;;;;;37.18;22.28;95144.97;5072406;28;20234;-54
2022/06/02 12:44:54;;;;;;;0.52;0.30;;;;;;;37.62;22.94;95153.41;5072705;28;20261;-54
2022/06/02 12:47:58;;;;;;;0.40;0.20;;;;;;;38.11;21.30;95144.13;4979470;28;20723;-54
2022/06/02 12:50:43;;;;;;;0.30;0.20;;;;;;;38.90;20.39;95141.94;5047729;28;20294;-54
2022/06/02 12:53:55;;;;;;;0.30;0.30;;;;;;;38.40;20.86;95143.88;5072100;28;20226;-54
2022/06/02 12:56:59;;;;;;;0.30;0.20;;;;;;;38.04;20.92;95146.38;5072619;28;20187;-54
2022/06/02 13:00:04;;;;;;;0.68;0.52;;;;;;;37.42;21.58;95143.38;5072139;28;20616;-54
2022/06/02 13:03:05;;;;;;;0.38;0.35;;;;;;;35.80;22.62;95133.75;5072253;28;20203;-54
2022/06/02 13:06:06;;;;;;;0.30;0.20;;;;;;;36.93;23.38;95142.22;5072168;28;20264;-53
2022/06/02 13:09:06;;;;;;;0.30;0.30;;;;;;;37.13;22.70;95095.00;5056091;28;20204;-54
2022/06/02 13:12:22;;;;;;;0.30;0.20;;;;;;;37.69;21.65;95125.50;5072058;28;20767;-54
2022/06/02 13:15:16;;;;;;;0.30;0.20;;;;;;;37.67;22.13;95141.78;5072012;28;20230;-54
2022/06/02 13:18:10;;;;;;;0.40;0.40;;;;;;;37.10;22.65;95132.59;5069005;28;20662;-54